Time;durP1;ratioP1;P1;durP2;ratioP2;P2;SDS_P1;SDS_P2;PMS_P1;PMS_P2;Temp;Humidity;BMP_temperature;BMP_pressure;BME280_temperature;BME280_humidity;BME280_pressure;Samples;Min_cycle;Max_cycle;Signal;HPM_P1;HPM_P2
2023/02/01 00:13:09;;;;;;;9.40;4.50;;;;;;;3.05;68.50;99701.63;102721;1286;605752;-54
2023/02/01 00:15:37;;;;;;;8.80;2.70;;;;;;;3.37;67.40;99698.04;104558;1263;81962;-54
2023/02/01 00:18:05;;;;;;;10.30;5.80;;;;;;;3.36;67.28;99696.66;104908;1263;59381;-54
2023/02/01 00:20:34;;;;;;;9.90;3.50;;;;;;;3.34;67.35;99691.58;104617;1264;64107;-54
2023/02/01 00:23:02;;;;;;;6.40;2.40;;;;;;;3.28;67.25;99693.20;104609;1264;62640;-55
2023/02/01 00:25:31;;;;;;;13.30;2.40;;;;;;;3.16;67.35;99693.16;104929;1263;65257;-54
2023/02/01 00:28:00;;;;;;;13.10;6.80;;;;;;;3.05;67.44;99687.28;104889;1263;59181;-54
2023/02/01 00:30:29;;;;;;;11.20;2.80;;;;;;;2.94;67.53;99690.20;104997;1266;59206;-54
2023/02/01 00:32:57;;;;;;;11.00;6.80;;;;;;;2.82;67.61;99691.73;105001;1264;64722;-54
2023/02/01 00:35:28;;;;;;;8.20;3.10;;;;;;;2.71;67.80;99690.13;104884;1263;62658;-55
2023/02/01 00:37:58;;;;;;;7.80;3.20;;;;;;;2.61;67.88;99686.21;104936;1263;65045;-54
2023/02/01 00:40:27;;;;;;;10.10;2.50;;;;;;;2.50;67.93;99683.92;104977;1267;59669;-54
2023/02/01 00:42:57;;;;;;;10.70;3.30;;;;;;;2.37;68.09;99680.65;104991;1264;59775;-55
2023/02/01 00:45:26;;;;;;;7.90;3.20;;;;;;;2.26;68.15;99683.23;104699;1264;65264;-55
2023/02/01 00:47:55;;;;;;;7.00;2.70;;;;;;;2.15;68.30;99683.48;105130;1264;62559;-54
2023/02/01 00:50:23;;;;;;;7.40;2.80;;;;;;;2.06;68.52;99684.50;104761;1264;64712;-54
2023/02/01 00:52:52;;;;;;;7.00;2.80;;;;;;;2.06;68.54;99681.58;104908;1263;59643;-54
2023/02/01 00:55:23;;;;;;;5.50;2.20;;;;;;;2.09;68.43;99686.58;104596;1263;59638;-55
2023/02/01 00:57:52;;;;;;;8.00;2.60;;;;;;;2.13;68.51;99685.71;105048;1267;65405;-54
2023/02/01 01:00:20;;;;;;;5.80;2.10;;;;;;;2.15;68.44;99685.90;104951;1267;62702;-54
2023/02/01 01:02:49;;;;;;;12.20;3.40;;;;;;;2.19;68.51;99690.36;104746;1265;65102;-55
2023/02/01 01:05:18;;;;;;;9.50;3.20;;;;;;;2.19;68.53;99694.52;105504;1263;60322;-55
2023/02/01 01:07:47;;;;;;;7.10;3.00;;;;;;;2.16;68.60;99694.52;104664;1264;61468;-54
2023/02/01 01:10:15;;;;;;;10.90;3.70;;;;;;;2.12;68.61;99694.90;104748;1263;65118;-53
2023/02/01 01:12:44;;;;;;;6.90;2.50;;;;;;;2.07;68.54;99692.55;107148;1267;63010;-54
2023/02/01 01:15:12;;;;;;;7.40;3.50;;;;;;;2.01;68.51;99691.52;106667;1266;73878;-54
2023/02/01 01:17:41;;;;;;;8.50;3.40;;;;;;;1.94;68.52;99690.33;104845;1263;59660;-55
2023/02/01 01:20:10;;;;;;;9.20;3.70;;;;;;;1.87;68.45;99691.77;104858;1268;59674;-54
2023/02/01 01:22:38;;;;;;;8.90;3.30;;;;;;;1.79;68.58;99693.06;104962;1267;73075;-56
2023/02/01 01:25:07;;;;;;;9.40;3.50;;;;;;;1.72;68.57;99698.48;105014;1263;71508;-55
2023/02/01 01:27:35;;;;;;;14.00;5.30;;;;;;;1.63;68.72;99700.65;104875;1264;73523;-53
2023/02/01 01:30:05;;;;;;;11.10;4.40;;;;;;;1.57;68.81;99698.74;104958;1263;60578;-55
2023/02/01 01:32:33;;;;;;;11.70;3.90;;;;;;;1.52;68.93;99701.80;105058;1264;61334;-57
2023/02/01 01:35:01;;;;;;;8.50;2.10;;;;;;;1.53;68.93;99701.24;106527;1263;73904;-56
2023/02/01 01:37:31;;;;;;;7.90;2.80;;;;;;;1.57;68.86;99699.27;104711;1264;62801;-55
2023/02/01 01:40:00;;;;;;;7.90;3.00;;;;;;;1.61;68.81;99695.41;104901;1263;65051;-55
2023/02/01 01:42:28;;;;;;;7.80;2.50;;;;;;;1.66;68.80;99689.80;104900;1267;62004;-56
2023/02/01 01:44:58;;;;;;;8.90;2.30;;;;;;;1.71;68.77;99689.73;104568;1263;59749;-55
2023/02/01 01:47:32;;;;;;;9.10;4.70;;;;;;;1.72;68.84;99686.19;104928;1264;65352;-55
2023/02/01 01:50:01;;;;;;;8.40;3.00;;;;;;;1.71;68.85;99684.89;104667;1263;62813;-55
2023/02/01 01:52:30;;;;;;;6.70;3.10;;;;;;;1.68;68.88;99684.49;104746;1263;64889;-55
2023/02/01 01:54:59;;;;;;;6.40;2.40;;;;;;;1.63;68.76;99680.11;104827;1261;59570;-55
2023/02/01 01:57:31;;;;;;;15.50;4.50;;;;;;;1.57;68.73;99680.09;105088;1260;59730;-55
2023/02/01 02:00:03;;;;;;;11.80;3.90;;;;;;;1.50;68.63;99681.34;105292;1265;65216;-55
2023/02/01 02:03:07;;;;;;;10.40;4.20;;;;;;;1.41;68.71;99680.27;104964;1263;62974;-54
2023/02/01 02:05:35;;;;;;;9.90;4.00;;;;;;;1.33;68.81;99681.89;105061;1263;64749;-55
2023/02/01 02:08:04;;;;;;;6.90;2.90;;;;;;;1.26;68.89;99681.75;105009;1265;60554;-55
2023/02/01 02:13:20;;;;;;;16.70;4.50;;;;;;;1.16;69.21;99681.23;104990;1263;65602;-54
2023/02/01 02:16:13;;;;;;;8.90;2.70;;;;;;;1.19;69.26;99676.41;104881;1263;71294;-55
2023/02/01 02:19:06;;;;;;;8.20;2.20;;;;;;;1.25;69.08;99674.85;105047;1260;64690;-55
2023/02/01 02:21:40;;;;;;;6.80;1.80;;;;;;;1.31;68.92;99675.75;105058;1261;60558;-55
2023/02/01 02:24:47;;;;;;;7.00;2.10;;;;;;;1.37;68.94;99675.31;105253;1260;59660;-55
2023/02/01 02:27:24;;;;;;;9.40;3.80;;;;;;;1.43;69.00;99674.95;105065;1261;65087;-56
2023/02/01 02:30:06;;;;;;;8.90;3.20;;;;;;;1.44;68.91;99677.17;105127;1260;62714;-55
2023/02/01 02:32:47;;;;;;;6.30;2.60;;;;;;;1.42;68.84;99675.18;105040;1260;63888;-55
2023/02/01 02:35:30;;;;;;;4.90;1.80;;;;;;;1.38;68.90;99676.27;105001;1260;59701;-56
2023/02/01 02:38:12;;;;;;;9.30;2.70;;;;;;;1.34;68.91;99675.63;105101;1266;59753;-55
2023/02/01 02:47:23;;;;;;;10.10;3.00;;;;;;;1.30;68.97;99675.84;105092;1260;64348;-54
2023/02/01 02:47:41;;;;;;;8.00;2.30;;;;;;;1.21;68.96;99669.38;105081;1260;64614;-54
2023/02/01 03:04:32;;;;;;;8.20;2.70;;;;;;;1.39;68.57;99661.38;105013;1260;60516;-57
2023/02/01 03:07:14;;;;;;;7.20;2.80;;;;;;;1.44;68.61;99659.85;105071;1265;60637;-55
2023/02/01 03:09:44;;;;;;;7.50;2.90;;;;;;;1.44;68.57;99661.77;104986;1265;65413;-55
2023/02/01 03:15:07;;;;;;;9.10;2.70;;;;;;;1.39;68.47;99664.65;105009;1262;64831;-57
2023/02/01 03:17:38;;;;;;;10.20;3.30;;;;;;;1.37;68.52;99664.23;105357;1262;59741;-56
2023/02/01 03:20:07;;;;;;;10.80;3.50;;;;;;;1.36;68.51;99661.34;105218;1256;59820;-56
2023/02/01 03:22:35;;;;;;;12.70;3.90;;;;;;;1.36;68.54;99661.86;105228;1257;72992;-56
2023/02/01 03:25:09;;;;;;;7.40;3.10;;;;;;;1.37;68.57;99660.80;105068;1256;71249;-57
2023/02/01 03:27:45;;;;;;;11.80;4.00;;;;;;;1.37;68.49;99659.77;105025;1256;73436;-56
2023/02/01 03:30:17;;;;;;;;;;;;;;;1.35;68.37;99658.83;105324;1260;59582;-56
2023/02/01 03:32:59;;;;;;;6.90;3.40;;;;;;;1.32;68.37;99656.70;105439;1257;59673;-56
2023/02/01 03:36:09;;;;;;;7.40;3.00;;;;;;;1.33;68.33;99658.92;105319;1262;65294;-55
2023/02/01 03:39:03;;;;;;;9.30;3.10;;;;;;;1.40;68.24;99652.47;105391;1257;62744;-56
2023/02/01 03:41:48;;;;;;;8.60;2.90;;;;;;;1.48;68.10;99651.04;105401;1260;64873;-56
2023/02/01 03:55:42;;;;;;;8.90;3.70;;;;;;;1.82;67.59;99650.12;102329;1288;603656;-52
2023/02/01 03:58:15;;;;;;;11.30;2.80;;;;;;;2.30;66.31;99643.52;104620;1257;305497;-53
2023/02/01 04:00:44;;;;;;;11.30;5.00;;;;;;;2.33;66.04;99648.39;105233;1258;59283;-53
2023/02/01 04:03:12;;;;;;;13.90;4.70;;;;;;;2.33;66.06;99648.20;105252;1262;73177;-51
2023/02/01 04:05:41;;;;;;;9.30;3.50;;;;;;;2.27;65.93;99646.60;105434;1257;62610;-51
2023/02/01 04:08:10;;;;;;;17.80;10.50;;;;;;;2.15;66.08;99647.98;105059;1260;64752;-53
2023/02/01 04:10:44;;;;;;;14.10;6.40;;;;;;;2.06;66.19;99645.42;105553;1257;59375;-53
2023/02/01 04:13:14;;;;;;;11.90;4.80;;;;;;;1.96;66.29;99646.84;105206;1256;59374;-52
2023/02/01 04:15:42;;;;;;;8.20;3.40;;;;;;;1.90;66.61;99648.05;104959;1258;73187;-52
2023/02/01 04:18:11;;;;;;;9.80;3.70;;;;;;;1.86;66.72;99649.42;105363;1260;69258;-53
2023/02/01 04:20:39;;;;;;;9.50;3.70;;;;;;;1.83;66.63;99653.39;105085;1256;72710;-53
2023/02/01 04:23:07;;;;;;;8.40;3.30;;;;;;;1.80;66.72;99653.06;105198;1256;59660;-52
2023/02/01 04:25:36;;;;;;;11.30;3.60;;;;;;;1.77;66.89;99653.77;104916;1259;61181;-53
2023/02/01 04:28:04;;;;;;;12.00;3.70;;;;;;;1.74;66.98;99654.29;104816;1260;73297;-53
2023/02/01 04:30:33;;;;;;;9.20;3.20;;;;;;;1.72;67.03;99657.49;104964;1257;70064;-51
2023/02/01 04:33:05;;;;;;;15.30;4.00;;;;;;;1.69;67.08;99654.71;104927;1258;73373;-53
2023/02/01 04:35:33;;;;;;;8.00;3.00;;;;;;;1.67;67.19;99658.29;104938;1256;60623;-53
2023/02/01 04:38:03;;;;;;;10.60;2.90;;;;;;;1.71;67.13;99659.11;104814;1257;60840;-54
2023/02/01 04:40:33;;;;;;;11.70;3.90;;;;;;;1.79;67.08;99657.08;104847;1260;73945;-54
2023/02/01 04:43:03;;;;;;;12.50;3.30;;;;;;;1.87;67.01;99658.55;105450;1257;63366;-53
2023/02/01 04:45:31;;;;;;;7.50;3.00;;;;;;;1.96;67.02;99659.27;105051;1260;63753;-52
2023/02/01 04:48:04;;;;;;;8.60;2.90;;;;;;;2.04;66.92;99661.09;104996;1256;59667;-52
2023/02/01 04:50:32;;;;;;;13.50;8.50;;;;;;;2.08;66.82;99659.34;104753;1257;59885;-53
2023/02/01 04:53:00;;;;;;;10.20;3.60;;;;;;;2.07;66.88;99657.10;105284;1257;65381;-53
2023/02/01 04:55:30;;;;;;;7.90;3.40;;;;;;;2.06;66.77;99655.63;104902;1256;62816;-52
2023/02/01 04:57:59;;;;;;;8.50;3.40;;;;;;;2.02;66.90;99659.13;104889;1257;64832;-55
2023/02/01 05:00:27;;;;;;;10.10;4.40;;;;;;;1.98;66.93;99659.17;105296;1257;60404;-53
2023/02/01 05:02:56;;;;;;;7.40;3.10;;;;;;;1.94;67.04;99658.49;105378;1258;59686;-53
2023/02/01 05:05:26;;;;;;;12.20;3.80;;;;;;;1.90;66.91;99659.80;105383;1260;73837;-53
2023/02/01 05:07:54;;;;;;;10.30;3.30;;;;;;;1.84;67.03;99653.52;105395;1260;71714;-53
2023/02/01 05:10:22;;;;;;;10.00;3.70;;;;;;;1.79;67.06;99654.48;105469;1259;64808;-53
2023/02/01 05:15:38;;;;;;;9.00;3.10;;;;;;;1.72;67.20;99653.36;105429;1260;59804;-53
2023/02/01 05:18:07;;;;;;;11.50;2.90;;;;;;;1.75;67.21;99653.71;105523;1260;65244;-53
2023/02/01 05:20:37;;;;;;;7.30;3.60;;;;;;;1.79;67.12;99654.52;105309;1259;62627;-52
2023/02/01 05:23:05;;;;;;;15.20;3.10;;;;;;;1.82;67.22;99647.92;105270;1260;73553;-52
2023/02/01 05:25:34;;;;;;;12.50;4.80;;;;;;;1.83;67.23;99650.83;105297;1258;60667;-53
2023/02/01 05:28:02;;;;;;;11.20;4.50;;;;;;;1.82;67.36;99653.63;105527;1257;59717;-53
2023/02/01 05:30:34;;;;;;;16.80;5.00;;;;;;;1.82;67.54;99654.52;105644;1256;74097;-54
2023/02/01 05:33:03;;;;;;;8.50;3.50;;;;;;;1.81;67.46;99651.30;105427;1260;61554;-52
2023/02/01 05:35:32;;;;;;;9.00;2.90;;;;;;;1.78;67.51;99650.23;105432;1258;64772;-53
2023/02/01 05:38:03;;;;;;;15.10;3.40;;;;;;;1.75;67.54;99646.45;105345;1258;59758;-53
2023/02/01 05:40:33;;;;;;;8.20;3.00;;;;;;;1.72;67.59;99646.61;105356;1257;59721;-53
2023/02/01 05:43:01;;;;;;;12.10;4.60;;;;;;;1.67;67.57;99645.64;105312;1257;73833;-53
2023/02/01 05:45:29;;;;;;;6.20;2.80;;;;;;;1.64;67.66;99648.08;105358;1261;71202;-53
2023/02/01 05:47:58;;;;;;;9.80;3.60;;;;;;;1.67;67.67;99644.44;105620;1259;73688;-53
2023/02/01 05:51:28;;;;;;;10.80;3.20;;;;;;;1.69;67.86;99643.50;102164;1289;601318;-60
2023/02/01 05:53:56;;;;;;;6.90;3.10;;;;;;;1.85;67.48;99643.46;104433;1270;59282;-61
2023/02/01 05:56:27;;;;;;;10.80;3.90;;;;;;;1.93;67.21;99643.01;105671;1266;59308;-61
2023/02/01 05:58:55;;;;;;;8.20;3.30;;;;;;;1.96;67.29;99648.41;106027;1266;72987;-61
2023/02/01 06:01:24;;;;;;;9.10;3.80;;;;;;;1.96;67.21;99647.20;104603;1266;62388;-60
2023/02/01 06:03:53;;;;;;;10.00;3.60;;;;;;;1.91;67.38;99648.33;104606;1271;178540;-63
2023/02/01 06:06:21;;;;;;;11.50;4.00;;;;;;;1.92;67.51;99652.21;104744;1264;59326;-61
2023/02/01 06:08:50;;;;;;;8.90;3.80;;;;;;;1.93;67.37;99651.45;104893;1263;61137;-61
2023/02/01 06:11:18;;;;;;;10.50;3.90;;;;;;;1.90;67.23;99650.65;104781;1264;72895;-61
2023/02/01 06:14:00;;;;;;;11.80;5.20;;;;;;;1.84;67.33;99650.41;104850;1264;62372;-61
2023/02/01 06:16:28;;;;;;;17.20;4.40;;;;;;;1.80;67.39;99650.82;104736;1268;73373;-61
2023/02/01 06:18:57;;;;;;;9.40;4.00;;;;;;;1.77;67.49;99650.98;104585;1264;60609;-61
2023/02/01 06:21:26;;;;;;;10.50;3.20;;;;;;;1.81;67.45;99651.64;104597;1264;61162;-63
2023/02/01 06:23:57;;;;;;;7.50;2.50;;;;;;;1.82;67.40;99656.24;104736;1264;74064;-60
2023/02/01 06:26:28;;;;;;;9.50;3.30;;;;;;;1.87;67.40;99655.61;104727;1268;70979;-61
2023/02/01 06:28:57;;;;;;;12.70;4.20;;;;;;;1.91;67.41;99653.67;104687;1270;73452;-61
2023/02/01 06:31:25;;;;;;;16.10;9.70;;;;;;;1.94;67.44;99655.23;104779;1264;60606;-61
2023/02/01 06:33:54;;;;;;;10.70;4.60;;;;;;;1.95;67.50;99652.94;104727;1264;61302;-62
2023/02/01 06:36:23;;;;;;;8.10;3.30;;;;;;;1.95;67.55;99653.11;104802;1263;73684;-61
2023/02/01 06:38:56;;;;;;;10.00;3.70;;;;;;;1.95;67.53;99653.61;104737;1264;71139;-61
2023/02/01 06:41:25;;;;;;;8.80;3.40;;;;;;;1.95;67.49;99653.44;104872;1269;72662;-61
2023/02/01 06:43:56;;;;;;;11.50;5.20;;;;;;;1.95;67.50;99649.11;104706;1264;60270;-61
2023/02/01 06:46:25;;;;;;;10.30;4.00;;;;;;;1.96;67.40;99651.86;104761;1264;61173;-61
2023/02/01 06:48:54;;;;;;;8.80;3.50;;;;;;;1.96;67.48;99653.20;104770;1268;72762;-61
2023/02/01 06:51:25;;;;;;;9.40;3.00;;;;;;;1.97;67.37;99651.78;105047;1269;70422;-60
2023/02/01 06:53:53;;;;;;;8.70;3.60;;;;;;;2.01;67.30;99651.20;104853;1267;73980;-62
2023/02/01 06:56:21;;;;;;;9.50;2.90;;;;;;;2.13;67.09;99648.48;104628;1264;62217;-60
2023/02/01 06:58:50;;;;;;;10.30;3.40;;;;;;;2.17;67.14;99648.45;104840;1264;61001;-61
2023/02/01 07:01:18;;;;;;;14.20;4.40;;;;;;;2.19;67.17;99648.46;104776;1269;74117;-62
2023/02/01 07:03:50;;;;;;;10.40;4.40;;;;;;;2.20;67.08;99648.27;104810;1267;71920;-61
2023/02/01 07:06:19;;;;;;;12.30;4.40;;;;;;;2.18;67.08;99647.48;105007;1264;72629;-62
2023/02/01 07:08:49;;;;;;;10.10;4.60;;;;;;;2.16;67.01;99644.86;104653;1268;59745;-60
2023/02/01 07:11:18;;;;;;;15.00;9.10;;;;;;;2.18;67.04;99639.33;104868;1264;61349;-61
2023/02/01 07:13:46;;;;;;;11.40;4.90;;;;;;;2.17;67.05;99636.64;104728;1265;73985;-60
2023/02/01 07:16:17;;;;;;;9.80;3.70;;;;;;;2.16;67.04;99635.46;104634;1266;70591;-60
2023/02/01 07:18:45;;;;;;;7.50;3.10;;;;;;;2.17;67.04;99629.52;104790;1264;74054;-62
2023/02/01 07:21:13;;;;;;;10.80;3.90;;;;;;;2.20;67.05;99632.99;104719;1266;60166;-61
2023/02/01 07:23:42;;;;;;;9.70;4.40;;;;;;;2.33;66.90;99632.60;108577;1263;61323;-60
2023/02/01 07:26:13;;;;;;;8.30;3.60;;;;;;;2.50;66.60;99633.71;108586;1263;73995;-60
2023/02/01 07:28:42;;;;;;;9.10;3.30;;;;;;;2.62;66.45;99634.92;108564;1263;70199;-59
2023/02/01 07:31:18;;;;;;;6.00;3.40;;;;;;;2.79;66.43;99634.95;108541;1263;73967;-59
2023/02/01 07:33:52;;;;;;;10.40;3.20;;;;;;;2.94;65.86;99629.54;107548;1266;60780;-59
2023/02/01 07:36:20;;;;;;;7.40;2.80;;;;;;;3.02;65.55;99624.24;104568;1266;59633;-60
2023/02/01 07:38:50;;;;;;;7.40;3.10;;;;;;;3.01;65.34;99625.47;104804;1267;74036;-60
2023/02/01 07:41:18;;;;;;;11.00;4.00;;;;;;;3.05;65.10;99619.01;104666;1268;71252;-62
2023/02/01 07:43:50;;;;;;;11.60;3.30;;;;;;;3.06;65.07;99614.80;108231;1266;73842;-60
2023/02/01 07:46:18;;;;;;;10.70;4.80;;;;;;;3.09;65.03;99613.36;104839;1266;60593;-61
2023/02/01 07:48:47;;;;;;;15.90;7.50;;;;;;;3.14;64.88;99607.01;104749;1265;61407;-61
2023/02/01 07:55:16;;;;;;;9.10;4.50;;;;;;;3.29;64.58;99613.75;102743;1283;601048;-60
2023/02/01 07:57:45;;;;;;;11.90;7.30;;;;;;;3.52;64.16;99609.85;108424;1265;57405;-60
2023/02/01 08:03:03;;;;;;;7.10;3.10;;;;;;;3.67;63.42;99603.72;105317;1268;64990;-61
2023/02/01 08:05:31;;;;;;;7.00;3.80;;;;;;;3.66;63.30;99603.23;104708;1269;69965;-61
2023/02/01 08:08:00;;;;;;;12.20;3.50;;;;;;;3.64;63.05;99605.62;104415;1268;268277;-60
2023/02/01 08:10:30;;;;;;;8.80;3.00;;;;;;;3.59;62.79;99604.55;104669;1264;60619;-60
2023/02/01 08:12:59;;;;;;;12.80;7.10;;;;;;;3.55;62.55;99603.07;104892;1263;61196;-60
2023/02/01 08:15:29;;;;;;;8.80;4.20;;;;;;;3.49;62.38;99601.86;104764;1267;73421;-60
2023/02/01 08:17:58;;;;;;;19.80;8.20;;;;;;;3.46;62.39;99605.77;104769;1263;71312;-60
2023/02/01 08:20:27;;;;;;;8.70;3.40;;;;;;;3.42;62.36;99602.84;104678;1267;73648;-59
2023/02/01 08:22:55;;;;;;;17.80;9.20;;;;;;;3.52;62.41;99601.37;104872;1269;62092;-60
2023/02/01 08:25:24;;;;;;;7.40;2.50;;;;;;;3.64;62.27;99595.04;104810;1263;61109;-61
2023/02/01 08:27:54;;;;;;;18.30;10.00;;;;;;;3.73;62.06;99595.02;104770;1263;73367;-60
2023/02/01 08:30:22;;;;;;;14.40;7.60;;;;;;;3.74;61.99;99597.20;104823;1267;70150;-61
2023/02/01 08:32:51;;;;;;;9.50;3.60;;;;;;;3.75;61.69;99592.83;104989;1266;72568;-61
2023/02/01 08:35:20;;;;;;;10.70;4.20;;;;;;;3.77;61.58;99593.86;104843;1263;60608;-62
2023/02/01 08:37:57;;;;;;;14.90;6.80;;;;;;;3.80;61.78;99589.00;104793;1263;61198;-60
2023/02/01 08:40:26;;;;;;;16.30;3.80;;;;;;;3.84;61.72;99590.67;104968;1266;74370;-63
2023/02/01 08:42:56;;;;;;;9.40;3.40;;;;;;;3.88;61.01;99592.63;104806;1266;71323;-60
2023/02/01 08:45:26;;;;;;;14.30;4.40;;;;;;;3.86;60.36;99586.86;104829;1269;72571;-62
2023/02/01 08:47:57;;;;;;;9.70;4.20;;;;;;;3.83;60.12;99586.23;104695;1264;60053;-60
2023/02/01 08:50:26;;;;;;;14.00;4.10;;;;;;;3.81;60.46;99582.67;104861;1263;61050;-62
2023/02/01 08:52:59;;;;;;;9.00;3.40;;;;;;;3.83;60.59;99583.08;104768;1266;73818;-60
2023/02/01 09:06:16;;;;;;;14.00;8.40;;;;;;;4.20;58.18;99565.34;101788;1299;601493;-60
2023/02/01 09:08:51;;;;;;;7.20;3.70;;;;;;;4.26;57.54;99558.55;104669;1269;59245;-60
2023/02/01 09:11:19;;;;;;;16.20;8.20;;;;;;;4.18;57.78;99547.44;105217;1268;60002;-64
2023/02/01 09:13:49;;;;;;;11.30;5.20;;;;;;;4.15;58.31;99548.17;106232;1271;73195;-63
2023/02/01 09:16:17;;;;;;;8.70;3.60;;;;;;;4.15;58.63;99541.07;104912;1266;71427;-62
2023/02/01 09:18:46;;;;;;;16.40;8.40;;;;;;;4.15;58.50;99536.60;104575;1269;198819;-62
2023/02/01 09:21:34;;;;;;;7.20;2.80;;;;;;;4.16;58.53;99533.02;104819;1262;59253;-60
2023/02/01 09:24:03;;;;;;;15.90;5.20;;;;;;;4.22;58.24;99532.45;104921;1263;61580;-63
2023/02/01 09:26:34;;;;;;;7.60;3.60;;;;;;;4.25;57.98;99529.14;105076;1263;73234;-62
2023/02/01 09:29:03;;;;;;;8.70;3.70;;;;;;;4.26;57.76;99524.55;105006;1265;70993;-60
2023/02/01 09:31:32;;;;;;;16.80;8.50;;;;;;;4.32;58.21;99516.87;104719;1264;73567;-60
2023/02/01 09:34:01;;;;;;;19.20;10.80;;;;;;;4.37;58.20;99514.39;108641;1262;60457;-61
2023/02/01 09:36:29;;;;;;;9.20;3.80;;;;;;;4.47;58.03;99513.90;108732;1261;59735;-61
2023/02/01 09:38:58;;;;;;;14.60;8.60;;;;;;;4.57;57.10;99510.80;108730;1261;73424;-64
2023/02/01 09:41:48;;;;;;;13.90;7.70;;;;;;;4.61;55.76;99506.99;107232;1265;70300;-62
2023/02/01 09:44:16;;;;;;;14.60;7.40;;;;;;;4.71;54.65;99504.66;104729;1267;72702;-63
2023/02/01 09:46:45;;;;;;;9.00;3.10;;;;;;;4.74;54.05;99500.61;105108;1261;60334;-62
2023/02/01 09:49:16;;;;;;;13.00;5.00;;;;;;;4.72;53.77;99495.15;105327;1265;60647;-62
2023/02/01 09:51:46;;;;;;;17.10;8.20;;;;;;;4.71;53.84;99497.14;104796;1265;73859;-60
2023/02/01 09:54:25;;;;;;;16.00;8.30;;;;;;;4.70;53.78;99492.55;104764;1262;70776;-64
2023/02/01 09:57:06;;;;;;;12.50;7.90;;;;;;;4.64;53.80;99490.33;104884;1261;65092;-62
2023/02/01 09:59:41;;;;;;;7.00;3.00;;;;;;;4.56;53.51;99489.84;104720;1266;59653;-60
2023/02/01 10:02:16;;;;;;;7.30;3.00;;;;;;;4.48;53.41;99485.20;104856;1263;59683;-61
2023/02/01 10:04:44;;;;;;;10.30;2.80;;;;;;;4.42;53.50;99492.19;104689;1262;73118;-61
2023/02/01 10:07:54;;;;;;;10.30;3.60;;;;;;;4.33;53.03;99490.90;104799;1266;70904;-62
2023/02/01 10:10:29;;;;;;;9.30;3.40;;;;;;;4.22;53.63;99488.52;104654;1265;65058;-60
2023/02/01 10:13:18;;;;;;;13.90;7.80;;;;;;;4.14;54.12;99487.71;104762;1261;59756;-60
2023/02/01 10:15:52;;;;;;;7.70;3.40;;;;;;;4.06;54.61;99485.44;105012;1263;59736;-61
2023/02/01 10:18:42;;;;;;;9.30;3.00;;;;;;;4.01;54.86;99488.40;104719;1267;65228;-61
2023/02/01 10:21:38;;;;;;;10.00;3.20;;;;;;;3.98;55.24;99487.90;104712;1264;62728;-61
2023/02/01 10:24:37;;;;;;;10.10;4.10;;;;;;;3.90;55.51;99489.95;104803;1265;64023;-61
2023/02/01 10:27:12;;;;;;;8.80;3.50;;;;;;;3.79;56.04;99486.20;104728;1265;59666;-61
2023/02/01 10:29:45;;;;;;;9.10;3.50;;;;;;;3.70;56.43;99479.29;104926;1262;59704;-61
2023/02/01 10:32:17;;;;;;;14.40;8.50;;;;;;;3.66;56.43;99474.55;104739;1267;65580;-60
2023/02/01 10:34:54;;;;;;;6.80;2.60;;;;;;;3.63;56.25;99467.81;104850;1265;63588;-62
2023/02/01 10:37:24;;;;;;;6.50;2.50;;;;;;;3.60;56.10;99466.61;104780;1266;65224;-60
2023/02/01 10:39:55;;;;;;;6.10;2.10;;;;;;;3.56;55.39;99463.94;104846;1263;60531;-63
2023/02/01 10:42:26;;;;;;;13.00;7.00;;;;;;;3.50;55.22;99460.66;104789;1263;59645;-60
2023/02/01 10:44:57;;;;;;;6.80;2.30;;;;;;;3.45;55.51;99456.86;104793;1266;65672;-61
2023/02/01 10:47:25;;;;;;;7.80;3.80;;;;;;;3.42;55.55;99454.14;105234;1262;62975;-61
2023/02/01 10:50:06;;;;;;;8.80;2.30;;;;;;;3.39;55.24;99450.67;104768;1262;72704;-61
2023/02/01 10:52:59;;;;;;;11.30;5.70;;;;;;;3.37;55.02;99446.27;104833;1265;59643;-61
2023/02/01 10:55:34;;;;;;;6.20;2.10;;;;;;;3.36;55.37;99445.81;105076;1263;59647;-60
2023/02/01 10:58:05;;;;;;;5.70;2.10;;;;;;;3.35;55.71;99444.15;104815;1265;65455;-62
2023/02/01 11:00:42;;;;;;;7.60;2.60;;;;;;;3.34;56.50;99441.29;104861;1267;71290;-60
2023/02/01 11:03:26;;;;;;;11.90;2.20;;;;;;;3.33;57.04;99443.04;104808;1268;65168;-62
2023/02/01 11:46:47;;;;;;;10.70;3.60;;;;;;;3.29;62.78;99412.97;102069;1293;600263;-72
2023/02/01 11:52:19;;;;;;;7.20;2.70;;;;;;;3.35;63.03;99410.36;101949;1290;602783;-72
2023/02/01 11:54:58;;;;;;;8.30;2.10;;;;;;;3.51;62.81;99403.54;108298;1268;57787;-73
2023/02/01 11:57:46;;;;;;;12.40;2.10;;;;;;;3.52;62.91;99403.11;105748;1268;59270;-73
2023/02/01 12:00:32;;;;;;;13.10;6.50;;;;;;;3.52;62.92;99399.65;104773;1270;64628;-72
2023/02/01 12:03:05;;;;;;;6.90;2.10;;;;;;;3.55;62.79;99390.45;104735;1267;62376;-72
2023/02/01 12:05:39;;;;;;;8.00;3.60;;;;;;;3.59;62.71;99395.63;104513;1263;207120;-73
2023/02/01 12:08:46;;;;;;;12.20;2.70;;;;;;;3.55;62.52;99389.09;104740;1264;59253;-72
2023/02/01 12:11:18;;;;;;;6.20;1.90;;;;;;;3.46;62.88;99393.17;104671;1264;59372;-72
2023/02/01 12:14:33;;;;;;;7.20;2.40;;;;;;;3.40;63.33;99391.15;104954;1263;64612;-71
2023/02/01 12:17:30;;;;;;;12.90;3.00;;;;;;;3.33;63.64;99387.55;104492;1267;62712;-72
2023/02/01 12:20:04;;;;;;;6.60;2.90;;;;;;;3.32;63.93;99385.55;105053;1267;65298;-73
2023/02/01 12:22:38;;;;;;;8.10;2.60;;;;;;;3.40;63.92;99382.79;104816;1269;61160;-73
2023/02/01 12:25:41;;;;;;;10.90;3.90;;;;;;;3.44;64.06;99380.31;104772;1265;61095;-73
2023/02/01 12:28:35;;;;;;;7.00;2.10;;;;;;;3.43;64.06;99379.45;104795;1267;65173;-72
2023/02/01 12:31:41;;;;;;;10.10;6.30;;;;;;;3.42;64.44;99380.60;105082;1264;62772;-72
2023/02/01 12:34:34;;;;;;;9.00;3.10;;;;;;;3.40;64.74;99378.62;104587;1264;64986;-72
2023/02/01 12:37:21;;;;;;;8.80;3.80;;;;;;;3.35;64.67;99374.10;104919;1264;59635;-73
2023/02/01 12:40:21;;;;;;;7.90;2.80;;;;;;;3.27;64.75;99375.84;104896;1266;59654;-72
2023/02/01 12:43:14;;;;;;;13.10;3.40;;;;;;;3.22;64.87;99378.41;105124;1269;64424;-72
2023/02/01 12:45:46;;;;;;;8.50;2.20;;;;;;;3.17;65.09;99382.56;104710;1264;62757;-73
2023/02/01 12:48:17;;;;;;;8.50;2.90;;;;;;;3.17;65.25;99382.25;104668;1270;65060;-73
2023/02/01 12:50:52;;;;;;;13.90;7.20;;;;;;;3.26;65.32;99380.29;104747;1267;59808;-72
2023/02/01 12:53:27;;;;;;;6.10;2.30;;;;;;;3.34;65.16;99379.39;104704;1264;59613;-71
2023/02/01 12:55:58;;;;;;;8.20;3.30;;;;;;;3.38;65.13;99370.30;104548;1265;65248;-72
2023/02/01 12:58:30;;;;;;;8.00;3.40;;;;;;;3.36;65.14;99374.02;104845;1264;62630;-72
2023/02/01 13:01:08;;;;;;;9.40;3.50;;;;;;;3.32;65.17;99374.14;104806;1267;63970;-72
2023/02/01 13:03:52;;;;;;;9.30;4.50;;;;;;;3.25;65.26;99377.86;104885;1264;59733;-72
2023/02/01 13:06:37;;;;;;;10.70;4.20;;;;;;;3.19;65.80;99379.31;104854;1264;59717;-76
2023/02/01 13:12:14;;;;;;;9.20;4.30;;;;;;;2.95;66.70;99372.89;102077;1297;601224;-80
2023/02/01 13:14:46;;;;;;;9.40;2.40;;;;;;;3.11;66.28;99372.70;105666;1271;59805;-70
2023/02/01 13:17:20;;;;;;;12.70;3.10;;;;;;;3.20;66.23;99370.08;105339;1268;59285;-73
2023/02/01 13:19:52;;;;;;;10.40;5.90;;;;;;;3.28;66.15;99372.70;105934;1270;64421;-72
2023/02/01 13:22:36;;;;;;;6.70;2.80;;;;;;;3.31;65.97;99373.48;104568;1271;62455;-72
2023/02/01 13:25:46;;;;;;;8.20;3.80;;;;;;;3.30;66.07;99373.55;104520;1268;218689;-72
2023/02/01 13:28:25;;;;;;;7.20;3.20;;;;;;;3.29;66.12;99374.20;104689;1270;59614;-72
2023/02/01 13:31:27;;;;;;;6.40;2.40;;;;;;;3.23;66.26;99372.32;104637;1270;59142;-73
2023/02/01 13:34:35;;;;;;;6.50;2.10;;;;;;;3.18;66.63;99371.05;104518;1270;64593;-72
2023/02/01 13:37:26;;;;;;;7.60;2.60;;;;;;;3.13;66.83;99371.23;104639;1266;62745;-72
2023/02/01 13:40:36;;;;;;;7.30;2.80;;;;;;;3.08;67.06;99366.70;104617;1269;64857;-76
2023/02/01 13:43:21;;;;;;;6.90;2.40;;;;;;;3.05;67.25;99370.34;104763;1266;59650;-76
2023/02/01 13:45:51;;;;;;;5.40;2.70;;;;;;;3.04;67.43;99370.91;104930;1270;59686;-75
2023/02/01 13:48:33;;;;;;;7.70;2.70;;;;;;;3.08;67.52;99372.77;104767;1269;65359;-85
2023/02/01 13:51:04;;;;;;;5.40;2.40;;;;;;;3.14;67.55;99374.60;105004;1265;61426;-72
2023/02/01 13:53:37;;;;;;;5.20;2.00;;;;;;;3.15;67.77;99372.27;104633;1266;64090;-73
2023/02/01 13:56:14;;;;;;;8.80;3.90;;;;;;;3.16;67.82;99373.77;104568;1270;59763;-74